createdAt,value
2023-04-16T00:00:49.758Z,0.00
2023-04-16T00:01:49.759Z,0.00
2023-04-16T00:02:49.976Z,0.00
2023-04-16T00:03:49.969Z,0.00
2023-04-16T00:04:49.788Z,0.00
2023-04-16T00:05:49.738Z,0.00
2023-04-16T00:06:49.749Z,0.00
2023-04-16T00:07:49.738Z,0.00
2023-04-16T00:08:49.714Z,0.00
2023-04-16T00:09:49.689Z,0.00
2023-04-16T00:10:49.704Z,0.00
2023-04-16T00:11:49.810Z,0.00
2023-04-16T00:12:49.695Z,0.00
2023-04-16T00:13:49.676Z,0.00
2023-04-16T00:14:49.717Z,0.00
2023-04-16T00:15:49.683Z,0.00
2023-04-16T00:16:49.690Z,0.00
2023-04-16T00:17:49.682Z,0.00
2023-04-16T00:18:49.660Z,0.00
2023-04-16T00:19:49.638Z,0.00
2023-04-16T00:20:49.656Z,0.00
2023-04-16T00:21:49.617Z,0.00
2023-04-16T00:22:49.651Z,0.00
2023-04-16T00:23:49.649Z,0.00
2023-04-16T00:24:49.624Z,0.00
2023-04-16T00:25:49.593Z,0.00
2023-04-16T00:26:49.590Z,0.00
2023-04-16T00:27:49.576Z,0.00
2023-04-16T00:28:49.610Z,0.00
2023-04-16T00:29:49.588Z,0.00
2023-04-16T00:30:49.632Z,0.00
2023-04-16T00:31:49.554Z,0.00
2023-04-16T00:32:49.587Z,0.00
2023-04-16T00:33:49.541Z,0.00
2023-04-16T00:34:49.557Z,0.00
2023-04-16T00:35:49.570Z,0.00
2023-04-16T00:36:49.563Z,0.00
2023-04-16T00:37:49.521Z,0.00
2023-04-16T00:38:49.571Z,0.00
2023-04-16T00:39:49.511Z,0.00
2023-04-16T00:40:49.536Z,0.00
2023-04-16T00:41:49.496Z,0.00
2023-04-16T00:42:49.508Z,0.00
2023-04-16T00:43:49.502Z,0.00
2023-04-16T00:44:49.507Z,0.00
2023-04-16T00:45:49.527Z,0.00
2023-04-16T00:46:49.524Z,0.00
2023-04-16T00:47:49.527Z,0.00
2023-04-16T00:48:49.518Z,0.00
2023-04-16T00:49:49.473Z,0.00
2023-04-16T00:50:49.466Z,0.00
2023-04-16T00:51:49.470Z,0.00
2023-04-16T00:52:49.459Z,0.00
2023-04-16T00:53:49.430Z,0.00
2023-04-16T00:54:49.464Z,0.00
2023-04-16T00:55:49.437Z,0.00
2023-04-16T00:56:49.471Z,0.00
2023-04-16T00:57:49.410Z,0.00
2023-04-16T00:58:49.421Z,0.00
2023-04-16T00:59:49.422Z,0.00
2023-04-16T01:00:49.435Z,0.00
2023-04-16T01:01:49.577Z,0.00
2023-04-16T01:02:49.482Z,0.00
2023-04-16T01:03:49.442Z,0.00
2023-04-16T01:04:49.392Z,0.00
2023-04-16T01:05:49.423Z,0.00
2023-04-16T01:06:49.391Z,0.00
2023-04-16T01:07:49.381Z,0.00
2023-04-16T01:08:49.386Z,0.00
2023-04-16T01:09:49.351Z,0.00
2023-04-16T01:10:49.369Z,0.00
2023-04-16T01:11:49.347Z,0.00
2023-04-16T01:12:49.373Z,0.00
2023-04-16T01:13:49.357Z,0.00
2023-04-16T01:14:49.346Z,0.00
2023-04-16T01:15:49.352Z,0.00
2023-04-16T01:16:49.338Z,0.00
2023-04-16T01:17:49.349Z,0.00
2023-04-16T01:18:49.351Z,0.00
2023-04-16T01:19:49.296Z,0.00
2023-04-16T01:20:49.339Z,0.00
2023-04-16T01:21:49.279Z,0.00
2023-04-16T01:22:49.326Z,0.00
2023-04-16T01:23:49.267Z,0.00
2023-04-16T01:24:49.292Z,0.00
2023-04-16T01:25:49.295Z,0.00
2023-04-16T01:26:49.297Z,0.00
2023-04-16T01:27:49.256Z,0.00
2023-04-16T01:28:49.315Z,0.00
2023-04-16T01:29:49.242Z,0.00
2023-04-16T01:30:49.269Z,0.00
2023-04-16T01:31:49.358Z,0.00
2023-04-16T01:32:49.299Z,0.00
2023-04-16T01:33:49.216Z,0.00
2023-04-16T01:34:49.255Z,0.00
2023-04-16T01:35:49.216Z,0.00
2023-04-16T01:36:49.220Z,0.00
2023-04-16T01:37:49.192Z,0.00
2023-04-16T01:38:49.216Z,0.00
2023-04-16T01:39:49.193Z,0.00
2023-04-16T01:40:49.233Z,0.00
2023-04-16T01:41:49.171Z,0.00
2023-04-16T01:42:49.186Z,0.00
2023-04-16T01:43:49.179Z,0.00
2023-04-16T01:44:49.176Z,0.00
2023-04-16T01:45:49.163Z,0.00
2023-04-16T01:46:49.216Z,0.00
2023-04-16T01:47:49.187Z,0.00
2023-04-16T01:48:49.161Z,0.00
2023-04-16T01:49:49.141Z,0.00
2023-04-16T01:50:49.138Z,0.00
2023-04-16T01:51:49.139Z,0.00
2023-04-16T01:52:49.132Z,0.00
2023-04-16T01:53:49.144Z,0.00
2023-04-16T01:54:49.123Z,0.00
2023-04-16T01:55:49.092Z,0.00
2023-04-16T01:56:49.099Z,0.00
2023-04-16T01:57:49.099Z,0.00
2023-04-16T01:58:49.098Z,0.00
2023-04-16T01:59:49.079Z,0.00
2023-04-16T02:00:49.148Z,0.00
2023-04-16T02:01:49.148Z,0.00
2023-04-16T02:02:49.264Z,0.00
2023-04-16T02:03:49.306Z,0.00
2023-04-16T02:04:49.053Z,0.00
2023-04-16T02:05:49.059Z,0.00
2023-04-16T02:06:49.058Z,0.00
2023-04-16T02:07:49.029Z,0.00
2023-04-16T02:08:49.057Z,0.00
2023-04-16T02:09:49.049Z,0.00
2023-04-16T02:10:49.025Z,0.00
2023-04-16T02:11:48.996Z,0.00
2023-04-16T02:12:49.008Z,0.00
2023-04-16T02:13:48.990Z,0.00
2023-04-16T02:14:49.013Z,0.00
2023-04-16T02:15:48.977Z,0.00
2023-04-16T02:16:49.106Z,0.00
2023-04-16T02:17:49.006Z,0.00
2023-04-16T02:18:48.968Z,0.00
2023-04-16T02:19:48.968Z,0.00
2023-04-16T02:20:48.956Z,0.00
2023-04-16T02:21:48.926Z,0.00
2023-04-16T02:22:48.960Z,0.00
2023-04-16T02:23:48.924Z,0.00
2023-04-16T02:24:48.986Z,0.00
2023-04-16T02:25:48.926Z,0.00
2023-04-16T02:26:48.947Z,0.00
2023-04-16T02:27:48.912Z,0.00
2023-04-16T02:28:48.920Z,0.00
2023-04-16T02:29:48.882Z,0.00
2023-04-16T02:30:48.941Z,0.00
2023-04-16T02:31:48.961Z,0.00
2023-04-16T02:32:48.915Z,0.00
2023-04-16T02:33:48.877Z,0.00
2023-04-16T02:34:48.885Z,0.00
2023-04-16T02:35:48.854Z,0.00
2023-04-16T02:36:48.904Z,0.00
2023-04-16T02:37:48.865Z,0.00
2023-04-16T02:38:48.864Z,0.00
2023-04-16T02:39:48.861Z,0.00
2023-04-16T02:40:48.850Z,0.00
2023-04-16T02:41:48.849Z,0.00
2023-04-16T02:42:48.847Z,0.00
2023-04-16T02:43:48.864Z,0.00
2023-04-16T02:44:48.856Z,0.00
2023-04-16T02:45:48.817Z,0.00
2023-04-16T02:46:48.853Z,0.00
2023-04-16T02:47:48.854Z,0.00
2023-04-16T02:48:48.817Z,0.00
2023-04-16T02:49:48.771Z,0.00
2023-04-16T02:50:48.791Z,0.00
2023-04-16T02:51:48.772Z,0.00
2023-04-16T02:52:48.789Z,0.00
2023-04-16T02:53:48.789Z,0.00
2023-04-16T02:54:48.761Z,0.00
2023-04-16T02:55:48.735Z,0.00
2023-04-16T02:56:48.764Z,0.00
2023-04-16T02:57:48.729Z,0.00
2023-04-16T02:58:48.773Z,0.00
2023-04-16T02:59:48.770Z,0.00
2023-04-16T03:00:48.756Z,0.00
2023-04-16T03:01:48.820Z,0.00
2023-04-16T03:02:48.958Z,0.00
2023-04-16T03:03:48.758Z,0.00
2023-04-16T03:04:48.720Z,0.00
2023-04-16T03:05:48.688Z,0.00
2023-04-16T03:06:48.723Z,0.00
2023-04-16T03:07:48.679Z,0.00
2023-04-16T03:08:48.706Z,0.00
2023-04-16T03:09:48.655Z,0.00
2023-04-16T03:10:48.708Z,0.00
2023-04-16T03:11:48.661Z,0.00
2023-04-16T03:12:48.665Z,0.00
2023-04-16T03:13:48.663Z,0.00
2023-04-16T03:14:48.671Z,0.00
2023-04-16T03:15:48.662Z,0.00
2023-04-16T03:16:48.637Z,0.00
2023-04-16T03:17:48.706Z,0.00
2023-04-16T03:18:48.653Z,0.00
2023-04-16T03:19:48.614Z,0.00
2023-04-16T03:20:48.643Z,0.00
2023-04-16T03:21:48.622Z,0.00
2023-04-16T03:22:48.627Z,0.00
2023-04-16T03:23:48.586Z,0.00
2023-04-16T03:24:48.600Z,0.00
2023-04-16T03:25:48.622Z,0.00
2023-04-16T03:26:48.605Z,0.00
2023-04-16T03:27:48.585Z,0.00
2023-04-16T03:28:48.591Z,0.00
2023-04-16T03:29:48.557Z,0.00
2023-04-16T03:30:48.595Z,0.00
2023-04-16T03:31:48.552Z,0.00
2023-04-16T03:32:48.597Z,0.00
2023-04-16T03:33:48.536Z,0.00
2023-04-16T03:34:48.558Z,0.00
2023-04-16T03:35:48.523Z,0.00
2023-04-16T03:36:48.570Z,0.00
2023-04-16T03:37:48.520Z,0.00
2023-04-16T03:38:48.523Z,0.00
2023-04-16T03:39:48.524Z,0.00
2023-04-16T03:40:48.519Z,0.00
2023-04-16T03:41:48.496Z,0.00
2023-04-16T03:42:48.497Z,0.00
2023-04-16T03:43:48.481Z,0.00
2023-04-16T03:44:48.494Z,0.00
2023-04-16T03:45:48.491Z,0.00
2023-04-16T03:46:48.511Z,0.00
2023-04-16T03:47:48.494Z,0.00
2023-04-16T03:48:48.476Z,0.00
2023-04-16T03:49:48.447Z,0.00
2023-04-16T03:50:48.478Z,0.00
2023-04-16T03:51:48.449Z,0.00
2023-04-16T03:52:48.455Z,0.00
2023-04-16T03:53:48.455Z,0.00
2023-04-16T03:54:48.456Z,0.00
2023-04-16T03:55:48.431Z,0.00
2023-04-16T03:56:48.468Z,0.00
2023-04-16T03:57:48.416Z,0.00
2023-04-16T03:58:48.462Z,0.00
2023-04-16T03:59:48.412Z,0.00
2023-04-16T04:00:48.437Z,0.00
2023-04-16T04:01:48.429Z,0.00
2023-04-16T04:02:48.606Z,1.00
2023-04-16T04:03:48.515Z,1.00
2023-04-16T04:04:48.528Z,1.00
2023-04-16T04:05:48.379Z,1.00
2023-04-16T04:06:48.392Z,1.00
2023-04-16T04:07:48.357Z,1.00
2023-04-16T04:08:48.368Z,1.00
2023-04-16T04:09:48.345Z,1.00
2023-04-16T04:10:48.393Z,1.00
2023-04-16T04:11:48.349Z,2.00
2023-04-16T04:12:48.347Z,1.00
2023-04-16T04:13:48.346Z,2.00
2023-04-16T04:14:48.335Z,2.00
2023-04-16T04:15:48.319Z,2.00
2023-04-16T04:16:48.497Z,3.00
2023-04-16T04:17:48.378Z,3.00
2023-04-16T04:18:48.311Z,3.00
2023-04-16T04:20:00.492Z,3.00
2023-04-16T04:20:49.305Z,3.00
2023-04-16T04:21:48.293Z,5.00
2023-04-16T04:22:48.293Z,4.00
2023-04-16T04:23:48.267Z,4.00
2023-04-16T04:24:48.272Z,5.00
2023-04-16T04:25:48.328Z,7.00
2023-04-16T04:26:48.261Z,6.00
2023-04-16T04:27:48.255Z,6.00
2023-04-16T04:28:48.246Z,8.00
2023-04-16T04:29:48.235Z,8.00
2023-04-16T04:30:48.250Z,9.00
2023-04-16T04:31:48.238Z,10.00
2023-04-16T04:32:48.342Z,11.00
2023-04-16T04:33:48.197Z,13.00
2023-04-16T04:34:48.230Z,13.00
2023-04-16T04:35:48.194Z,13.00
2023-04-16T04:36:48.209Z,15.00
2023-04-16T04:37:48.174Z,15.00
2023-04-16T04:38:48.188Z,18.00
2023-04-16T04:39:48.159Z,20.00
2023-04-16T04:40:48.196Z,21.00
2023-04-16T04:41:48.156Z,24.00
2023-04-16T04:42:48.181Z,25.00
2023-04-16T04:43:48.185Z,29.00
2023-04-16T04:44:48.176Z,30.00
2023-04-16T04:45:48.144Z,28.00
2023-04-16T04:46:48.141Z,27.00
2023-04-16T04:47:48.157Z,25.00
2023-04-16T04:48:48.130Z,26.00
2023-04-16T04:49:48.126Z,29.00
2023-04-16T04:50:48.132Z,28.00
2023-04-16T04:51:48.118Z,30.00
2023-04-16T04:52:48.120Z,31.00
2023-04-16T04:53:48.120Z,34.00
2023-04-16T04:54:48.120Z,37.00
2023-04-16T04:55:50.924Z,39.00
2023-04-16T04:56:48.089Z,44.00
2023-04-16T04:57:48.066Z,46.00
2023-04-16T04:58:48.074Z,50.00
2023-04-16T04:59:48.057Z,51.00
2023-04-16T05:00:48.108Z,52.00
2023-04-16T05:01:48.077Z,55.00
2023-04-16T05:02:48.218Z,53.00
2023-04-16T05:03:48.110Z,57.00
2023-04-16T05:04:48.092Z,57.00
2023-04-16T05:05:48.024Z,61.00
2023-04-16T05:06:48.054Z,61.00
2023-04-16T05:07:48.012Z,61.00
2023-04-16T05:08:48.021Z,69.00
2023-04-16T05:09:48.002Z,72.00
2023-04-16T05:10:48.035Z,72.00
2023-04-16T05:11:47.995Z,70.00
2023-04-16T05:12:49.042Z,73.00
2023-04-16T05:13:48.000Z,71.00
2023-04-16T05:14:48.008Z,65.00
2023-04-16T05:15:47.983Z,60.00
2023-04-16T05:16:48.011Z,60.00
2023-04-16T05:17:48.020Z,60.00
2023-04-16T05:18:47.983Z,60.00
2023-04-16T05:19:47.952Z,62.00
2023-04-16T05:20:47.971Z,62.00
2023-04-16T05:21:47.935Z,57.00
2023-04-16T05:22:47.969Z,57.00
2023-04-16T05:23:47.942Z,60.00
2023-04-16T05:24:47.944Z,67.00
2023-04-16T05:25:47.917Z,70.00
2023-04-16T05:26:47.953Z,72.00
2023-04-16T05:27:47.903Z,72.00
2023-04-16T05:28:47.929Z,73.00
2023-04-16T05:29:47.901Z,70.00
2023-04-16T05:30:47.950Z,73.00
2023-04-16T05:31:47.884Z,80.00
2023-04-16T05:32:47.944Z,78.00
2023-04-16T05:33:47.873Z,79.00
2023-04-16T05:34:47.882Z,85.00
2023-04-16T05:35:47.881Z,84.00
2023-04-16T05:36:47.875Z,80.00
2023-04-16T05:37:47.866Z,80.00
2023-04-16T05:38:47.861Z,94.00
2023-04-16T05:39:47.858Z,101.00
2023-04-16T05:40:47.848Z,99.00
2023-04-16T05:41:47.847Z,104.00
2023-04-16T05:42:47.846Z,114.00
2023-04-16T05:43:47.836Z,129.00
2023-04-16T05:44:47.836Z,140.00
2023-04-16T05:45:47.830Z,136.00
2023-04-16T05:46:47.817Z,135.00
2023-04-16T05:47:47.852Z,136.00
2023-04-16T05:48:47.830Z,145.00
2023-04-16T05:49:47.789Z,139.00
2023-04-16T05:50:47.804Z,133.00
2023-04-16T05:51:49.128Z,122.00
2023-04-16T05:52:47.810Z,118.00
2023-04-16T05:53:47.785Z,110.00
2023-04-16T05:54:47.794Z,101.00
2023-04-16T05:55:47.755Z,96.00
2023-04-16T05:56:47.767Z,94.00
2023-04-16T05:57:47.742Z,94.00
2023-04-16T05:58:47.757Z,98.00
2023-04-16T05:59:47.750Z,103.00
2023-04-16T06:00:47.746Z,106.00
2023-04-16T06:01:47.782Z,111.00
2023-04-16T06:02:47.836Z,122.00
2023-04-16T06:03:47.771Z,124.00
2023-04-16T06:04:47.735Z,127.00
2023-04-16T06:05:47.702Z,131.00
2023-04-16T06:06:47.724Z,136.00
2023-04-16T06:07:47.683Z,156.00
2023-04-16T06:08:47.703Z,159.00
2023-04-16T06:09:47.689Z,159.00
2023-04-16T06:10:47.702Z,161.00
2023-04-16T06:11:47.670Z,166.00
2023-04-16T06:12:47.677Z,165.00
2023-04-16T06:13:47.665Z,183.00
2023-04-16T06:14:47.661Z,205.00
2023-04-16T06:15:47.651Z,210.00
2023-04-16T06:16:47.659Z,204.00
2023-04-16T06:17:47.688Z,210.00
2023-04-16T06:18:47.643Z,202.00
2023-04-16T06:19:47.627Z,211.00
2023-04-16T06:20:47.633Z,213.00
2023-04-16T06:21:47.615Z,222.00
2023-04-16T06:22:47.622Z,223.00
2023-04-16T06:23:47.626Z,229.00
2023-04-16T06:24:47.607Z,231.00
2023-04-16T06:25:47.586Z,239.00
2023-04-16T06:26:47.589Z,241.00
2023-04-16T06:27:47.576Z,241.00
2023-04-16T06:28:47.578Z,252.00
2023-04-16T06:29:47.598Z,281.00
2023-04-16T06:30:47.568Z,277.00
2023-04-16T06:31:47.579Z,275.00
2023-04-16T06:32:47.577Z,276.00
2023-04-16T06:33:47.540Z,274.00
2023-04-16T06:34:47.580Z,281.00
2023-04-16T06:35:47.541Z,298.00
2023-04-16T06:36:47.545Z,342.00
2023-04-16T06:37:47.539Z,347.00
2023-04-16T06:38:47.527Z,360.00
2023-04-16T06:39:47.503Z,359.00
2023-04-16T06:40:47.520Z,360.00
2023-04-16T06:41:47.514Z,369.00
2023-04-16T06:42:47.526Z,370.00
2023-04-16T06:43:47.483Z,372.00
2023-04-16T06:44:47.486Z,391.00
2023-04-16T06:45:47.473Z,396.00
2023-04-16T06:46:47.521Z,412.00
2023-04-16T06:47:47.465Z,397.00
2023-04-16T06:48:47.471Z,400.00
2023-04-16T06:49:47.460Z,427.00
2023-04-16T06:50:47.486Z,430.00
2023-04-16T06:51:47.460Z,408.00
2023-04-16T06:52:47.480Z,416.00
2023-04-16T06:53:47.426Z,440.00
2023-04-16T06:54:47.467Z,464.00
2023-04-16T06:55:47.419Z,489.00
2023-04-16T06:56:47.426Z,554.00
2023-04-16T06:57:47.411Z,583.00
2023-04-16T06:58:47.433Z,637.00
2023-04-16T06:59:47.391Z,679.00
2023-04-16T07:00:47.492Z,651.00
2023-04-16T07:01:47.422Z,599.00
2023-04-16T07:02:47.526Z,550.00
2023-04-16T07:03:47.644Z,532.00
2023-04-16T07:04:47.378Z,558.00
2023-04-16T07:05:47.380Z,561.00
2023-04-16T07:06:47.374Z,527.00
2023-04-16T07:07:47.372Z,520.00
2023-04-16T07:08:47.357Z,529.00
2023-04-16T07:09:47.365Z,551.00
2023-04-16T07:10:47.355Z,538.00
2023-04-16T07:11:47.340Z,542.00
2023-04-16T07:12:47.354Z,509.00
2023-04-16T07:13:47.311Z,544.00
2023-04-16T07:14:47.356Z,565.00
2023-04-16T07:15:47.312Z,586.00
2023-04-16T07:16:47.342Z,601.00
2023-04-16T07:17:47.373Z,580.00
2023-04-16T07:18:47.312Z,573.00
2023-04-16T07:19:47.356Z,601.00
2023-04-16T07:20:47.292Z,590.00
2023-04-16T07:21:47.275Z,564.00
2023-04-16T07:22:47.274Z,554.00
2023-04-16T07:23:47.266Z,568.00
2023-04-16T07:24:47.287Z,571.00
2023-04-16T07:25:47.248Z,548.00
2023-04-16T07:26:47.270Z,517.00
2023-04-16T07:27:47.279Z,524.00
2023-04-16T07:28:47.269Z,513.00
2023-04-16T07:29:47.223Z,514.00
2023-04-16T07:30:47.252Z,509.00
2023-04-16T07:31:47.241Z,489.00
2023-04-16T07:32:47.305Z,489.00
2023-04-16T07:33:47.201Z,490.00
2023-04-16T07:34:47.230Z,476.00
2023-04-16T07:35:47.210Z,457.00
2023-04-16T07:36:47.205Z,457.00
2023-04-16T07:37:47.238Z,451.00
2023-04-16T07:38:47.227Z,484.00
2023-04-16T07:39:47.186Z,509.00
2023-04-16T07:40:47.194Z,491.00
2023-04-16T07:41:47.150Z,502.00
2023-04-16T07:42:47.204Z,505.00
2023-04-16T07:43:47.149Z,488.00
2023-04-16T07:44:47.186Z,491.00
2023-04-16T07:45:47.170Z,511.00
2023-04-16T07:46:47.826Z,535.00
2023-04-16T07:47:47.260Z,514.00
2023-04-16T07:48:47.137Z,503.00
2023-04-16T07:49:47.134Z,510.00
2023-04-16T07:50:47.162Z,515.00
2023-04-16T07:51:47.106Z,499.00
2023-04-16T07:52:47.116Z,507.00
2023-04-16T07:53:47.121Z,526.00
2023-04-16T07:54:47.111Z,548.00
2023-04-16T07:55:47.087Z,563.00
2023-04-16T07:56:47.103Z,597.00
2023-04-16T07:57:47.076Z,596.00
2023-04-16T07:58:47.103Z,569.00
2023-04-16T07:59:47.063Z,573.00
2023-04-16T08:00:47.492Z,638.00
2023-04-16T08:01:47.053Z,669.00
2023-04-16T08:02:47.158Z,739.00
2023-04-16T08:03:47.305Z,753.00
2023-04-16T08:04:47.402Z,818.00
2023-04-16T08:05:47.045Z,894.00
2023-04-16T08:06:47.044Z,976.00
2023-04-16T08:07:47.037Z,1013.00
2023-04-16T08:08:47.027Z,1040.00
2023-04-16T08:09:47.039Z,1081.00
2023-04-16T08:10:47.044Z,1031.00
2023-04-16T08:11:47.025Z,1041.00
2023-04-16T08:12:47.015Z,1115.00
2023-04-16T08:13:46.988Z,1112.00
2023-04-16T08:14:47.028Z,1196.00
2023-04-16T08:15:47.005Z,1182.00
2023-04-16T08:16:46.981Z,1168.00
2023-04-16T08:17:47.062Z,1117.00
2023-04-16T08:18:47.002Z,1040.00
2023-04-16T08:19:46.971Z,988.00
2023-04-16T08:20:46.978Z,984.00
2023-04-16T08:21:46.948Z,939.00
2023-04-16T08:22:46.969Z,917.00
2023-04-16T08:23:46.928Z,866.00
2023-04-16T08:24:46.961Z,823.00
2023-04-16T08:25:46.977Z,823.00
2023-04-16T08:26:46.941Z,832.00
2023-04-16T08:27:46.927Z,865.00
2023-04-16T08:28:46.908Z,901.00
2023-04-16T08:29:46.893Z,930.00
2023-04-16T08:30:46.904Z,967.00
2023-04-16T08:31:47.007Z,1008.00
2023-04-16T08:32:49.413Z,1030.00
2023-04-16T08:33:48.951Z,1012.00
2023-04-16T08:34:46.912Z,1020.00
2023-04-16T08:35:46.865Z,1083.00
2023-04-16T08:36:46.883Z,1005.00
2023-04-16T08:37:46.860Z,1045.00
2023-04-16T08:38:46.858Z,1112.00
2023-04-16T08:39:46.864Z,1099.00
2023-04-16T08:40:46.848Z,1114.00
2023-04-16T08:41:46.846Z,1119.00
2023-04-16T08:42:46.857Z,1109.00
2023-04-16T08:43:46.817Z,1119.00
2023-04-16T08:44:48.838Z,1013.00
2023-04-16T08:45:46.804Z,983.00
2023-04-16T08:46:46.838Z,1077.00
2023-04-16T08:47:46.842Z,1050.00
2023-04-16T08:48:46.815Z,946.00
2023-04-16T08:49:46.771Z,870.00
2023-04-16T08:50:46.782Z,919.00
2023-04-16T08:51:46.805Z,894.00
2023-04-16T08:52:46.784Z,895.00
2023-04-16T08:53:46.745Z,868.00
2023-04-16T08:54:46.763Z,868.00
2023-04-16T08:55:47.727Z,884.00
2023-04-16T08:56:46.772Z,877.00
2023-04-16T08:57:46.731Z,912.00
2023-04-16T08:58:46.762Z,935.00
2023-04-16T08:59:46.729Z,864.00
2023-04-16T09:00:46.761Z,888.00
2023-04-16T09:01:46.746Z,890.00
2023-04-16T09:02:46.955Z,840.00
2023-04-16T09:03:46.855Z,820.00
2023-04-16T09:04:46.749Z,843.00
2023-04-16T09:05:46.670Z,837.00
2023-04-16T09:06:46.720Z,799.00
2023-04-16T09:07:46.665Z,743.00
2023-04-16T09:08:46.678Z,712.00
2023-04-16T09:09:46.695Z,766.00
2023-04-16T09:10:46.660Z,797.00
2023-04-16T09:11:46.698Z,801.00
2023-04-16T09:12:46.662Z,820.00
2023-04-16T09:13:46.638Z,838.00
2023-04-16T09:14:46.768Z,854.00
2023-04-16T09:15:46.606Z,855.00
2023-04-16T09:16:46.652Z,787.00
2023-04-16T09:17:46.683Z,822.00
2023-04-16T09:18:46.633Z,840.00
2023-04-16T09:19:46.599Z,804.00
2023-04-16T09:20:46.599Z,807.00
2023-04-16T09:21:46.583Z,787.00
2023-04-16T09:22:46.605Z,772.00
2023-04-16T09:23:46.594Z,758.00
2023-04-16T09:24:46.571Z,765.00
2023-04-16T09:25:46.575Z,760.00
2023-04-16T09:26:46.566Z,753.00
2023-04-16T09:27:46.542Z,781.00
2023-04-16T09:28:46.542Z,811.00
2023-04-16T09:29:46.557Z,747.00
2023-04-16T09:30:46.558Z,701.00
2023-04-16T09:31:46.554Z,664.00
2023-04-16T09:32:46.578Z,693.00
2023-04-16T09:33:46.511Z,710.00
2023-04-16T09:34:46.529Z,691.00
2023-04-16T09:35:46.502Z,702.00
2023-04-16T09:36:46.512Z,692.00
2023-04-16T09:37:46.483Z,652.00
2023-04-16T09:38:46.487Z,641.00
2023-04-16T09:39:46.483Z,638.00
2023-04-16T09:40:46.478Z,602.00
2023-04-16T09:41:46.464Z,555.00
2023-04-16T09:42:46.482Z,541.00
2023-04-16T09:43:46.443Z,516.00
2023-04-16T09:44:46.501Z,494.00
2023-04-16T09:45:46.475Z,495.00
2023-04-16T09:46:46.481Z,515.00
2023-04-16T09:47:46.539Z,517.00
2023-04-16T09:48:46.453Z,519.00
2023-04-16T09:49:46.484Z,536.00
2023-04-16T09:50:46.417Z,548.00
2023-04-16T09:51:46.395Z,541.00
2023-04-16T09:52:46.410Z,525.00
2023-04-16T09:53:46.390Z,526.00
2023-04-16T09:54:46.391Z,546.00
2023-04-16T09:55:46.906Z,559.00
2023-04-16T09:56:46.407Z,612.00
2023-04-16T09:57:46.363Z,647.00
2023-04-16T09:58:46.381Z,678.00
2023-04-16T09:59:46.355Z,738.00
2023-04-16T10:00:46.396Z,836.00
2023-04-16T10:01:46.472Z,864.00
2023-04-16T10:02:48.062Z,868.00
2023-04-16T10:03:46.408Z,929.00
2023-04-16T10:04:46.403Z,1006.00
2023-04-16T10:05:46.332Z,1053.00
2023-04-16T10:06:46.348Z,1010.00
2023-04-16T10:07:46.352Z,966.00
2023-04-16T10:08:48.475Z,1004.00
2023-04-16T10:09:46.340Z,1066.00
2023-04-16T10:10:46.341Z,1143.00
2023-04-16T10:11:46.289Z,1131.00
2023-04-16T10:12:46.310Z,1145.00
2023-04-16T10:13:46.290Z,1268.00
2023-04-16T10:14:48.276Z,1393.00
2023-04-16T10:15:46.297Z,1568.00
2023-04-16T10:16:46.329Z,1665.00
2023-04-16T10:17:46.298Z,1886.00
2023-04-16T10:18:46.274Z,2121.00
2023-04-16T10:19:46.267Z,2117.00
2023-04-16T10:20:46.255Z,1810.00
2023-04-16T10:21:46.253Z,1645.00
2023-04-16T10:22:46.259Z,1567.00
2023-04-16T10:23:46.252Z,1485.00
2023-04-16T10:24:46.240Z,1539.00
2023-04-16T10:25:46.244Z,1729.00
2023-04-16T10:26:46.251Z,1940.00
2023-04-16T10:27:46.195Z,2102.00
2023-04-16T10:28:46.227Z,2414.00
2023-04-16T10:29:46.241Z,2501.00
2023-04-16T10:30:46.272Z,2317.00
2023-04-16T10:31:46.172Z,2382.00
2023-04-16T10:32:46.267Z,2458.00
2023-04-16T10:33:46.204Z,2691.00
2023-04-16T10:34:46.208Z,2664.00
2023-04-16T10:35:52.334Z,2612.00
2023-04-16T10:36:47.179Z,2569.00
2023-04-16T10:37:46.135Z,2274.00
2023-04-16T10:38:46.154Z,1915.00
2023-04-16T10:39:46.136Z,1740.00
2023-04-16T10:40:46.187Z,1749.00
2023-04-16T10:41:46.136Z,1818.00
2023-04-16T10:42:46.117Z,1822.00
2023-04-16T10:43:46.130Z,1766.00
2023-04-16T10:44:46.115Z,1757.00
2023-04-16T10:45:46.141Z,1652.00
2023-04-16T10:46:46.127Z,1504.00
2023-04-16T10:47:46.117Z,1423.00
2023-04-16T10:48:50.316Z,1362.00
2023-04-16T10:49:46.061Z,1286.00
2023-04-16T10:50:46.091Z,1269.00
2023-04-16T10:51:46.109Z,1269.00
2023-04-16T10:52:46.075Z,1259.00
2023-04-16T10:53:46.077Z,1290.00
2023-04-16T10:54:46.041Z,1243.00
2023-04-16T10:55:46.011Z,1187.00
2023-04-16T10:56:46.044Z,1185.00
2023-04-16T10:57:46.004Z,1090.00
2023-04-16T10:58:46.008Z,996.00
2023-04-16T10:59:46.077Z,960.00
2023-04-16T11:00:46.003Z,997.00
2023-04-16T11:01:46.024Z,1071.00
2023-04-16T11:02:46.085Z,1084.00
2023-04-16T11:03:46.130Z,1068.00
2023-04-16T11:04:46.069Z,1064.00
2023-04-16T11:05:45.977Z,1031.00
2023-04-16T11:06:45.956Z,1019.00
2023-04-16T11:07:45.955Z,953.00
2023-04-16T11:08:53.759Z,887.00
2023-04-16T11:09:46.968Z,926.00
2023-04-16T11:10:45.932Z,971.00
2023-04-16T11:11:45.936Z,987.00
2023-04-16T11:12:45.917Z,967.00
2023-04-16T11:13:45.892Z,927.00
2023-04-16T11:14:45.914Z,878.00
2023-04-16T11:15:45.935Z,884.00
2023-04-16T11:16:45.928Z,903.00
2023-04-16T11:17:45.946Z,942.00
2023-04-16T11:18:51.530Z,996.00
2023-04-16T11:19:46.867Z,1015.00
2023-04-16T11:20:45.915Z,1021.00
2023-04-16T11:21:45.840Z,1023.00
2023-04-16T11:22:45.854Z,1050.00
2023-04-16T11:23:45.822Z,1121.00
2023-04-16T11:24:45.827Z,1130.00
2023-04-16T11:25:45.839Z,1191.00
2023-04-16T11:26:45.829Z,1233.00
2023-04-16T11:27:45.845Z,1166.00
2023-04-16T11:28:45.851Z,1150.00
2023-04-16T11:29:47.468Z,1131.00
2023-04-16T11:30:45.830Z,1131.00
2023-04-16T11:31:45.906Z,1201.00
2023-04-16T11:32:45.859Z,1234.00
2023-04-16T11:33:45.829Z,1150.00
2023-04-16T11:34:45.768Z,1232.00
2023-04-16T11:35:45.768Z,1238.00
2023-04-16T11:36:45.769Z,1217.00
2023-04-16T11:37:45.762Z,1163.00
2023-04-16T11:38:45.752Z,1126.00
2023-04-16T11:39:45.748Z,1112.00
2023-04-16T11:40:45.745Z,1111.00
2023-04-16T11:41:45.776Z,1178.00
2023-04-16T11:42:45.779Z,1208.00
2023-04-16T11:43:45.738Z,1181.00
2023-04-16T11:44:45.698Z,1161.00
2023-04-16T11:45:45.683Z,1252.00
2023-04-16T11:46:45.768Z,1318.00
2023-04-16T11:47:45.773Z,1379.00
2023-04-16T11:48:45.725Z,1390.00
2023-04-16T11:49:45.680Z,1396.00
2023-04-16T11:50:45.704Z,1381.00
2023-04-16T11:51:45.662Z,1370.00
2023-04-16T11:52:45.667Z,1385.00
2023-04-16T11:53:52.653Z,1397.00
2023-04-16T11:54:45.642Z,1457.00
2023-04-16T11:55:45.738Z,1405.00
2023-04-16T11:56:45.645Z,1332.00
2023-04-16T11:57:45.632Z,1315.00
2023-04-16T11:58:45.624Z,1318.00
2023-04-16T12:00:01.361Z,1300.00
2023-04-16T12:00:46.604Z,1339.00
2023-04-16T12:01:45.638Z,1302.00
2023-04-16T12:02:45.899Z,1313.00
2023-04-16T12:03:45.947Z,1350.00
2023-04-16T12:04:45.670Z,1396.00
2023-04-16T12:05:45.601Z,1394.00
2023-04-16T12:06:45.579Z,1498.00
2023-04-16T12:07:45.610Z,1539.00
2023-04-16T12:08:45.570Z,1509.00
2023-04-16T12:09:45.547Z,1497.00
2023-04-16T12:10:45.555Z,1520.00
2023-04-16T12:11:45.557Z,1561.00
2023-04-16T12:12:45.548Z,1686.00
2023-04-16T12:13:45.563Z,1803.00
2023-04-16T12:14:45.535Z,1769.00
2023-04-16T12:15:45.524Z,1589.00
2023-04-16T12:16:45.591Z,1628.00
2023-04-16T12:17:45.537Z,1654.00
2023-04-16T12:18:45.507Z,1732.00
2023-04-16T12:19:45.494Z,1743.00
2023-04-16T12:20:45.510Z,1858.00
2023-04-16T12:21:45.496Z,1925.00
2023-04-16T12:22:45.490Z,1840.00
2023-04-16T12:23:45.477Z,1742.00
2023-04-16T12:24:45.475Z,1754.00
2023-04-16T12:25:45.475Z,1680.00
2023-04-16T12:26:45.479Z,1610.00
2023-04-16T12:27:45.457Z,1571.00
2023-04-16T12:28:45.469Z,1549.00
2023-04-16T12:29:45.455Z,1539.00
2023-04-16T12:30:45.481Z,1470.00
2023-04-16T12:31:45.423Z,1375.00
2023-04-16T12:32:45.508Z,1336.00
2023-04-16T12:33:45.436Z,1307.00
2023-04-16T12:34:49.124Z,1293.00
2023-04-16T12:35:45.400Z,1361.00
2023-04-16T12:36:45.418Z,1454.00
2023-04-16T12:37:45.386Z,1472.00
2023-04-16T12:38:45.391Z,1449.00
2023-04-16T12:39:47.547Z,1420.00
2023-04-16T12:40:45.418Z,1349.00
2023-04-16T12:41:45.393Z,1368.00
2023-04-16T12:42:45.390Z,1308.00